Elfin Cove, Alaska
Current Conditions -  °F | °C
As of 11:29 AM on Wednesday 26 Nov 2014 (Local Time) from PAGS Reporting Station
Clear Clear  
Wind Chill: 29°   Ceiling: Unl
Heat Index: 34°   Visibility: 10mi
Dew Point: 32°   Wind: 6mph
Humidity: 93%   Direction: 350°N
Pressure: 30.18"   Gusts: NA
Location:  58.19°N, 136.34°W
Report Text: PAGS 262029Z AUTO 35005KT 10SM CLR 01/00 A3018 RMK VIA PHONE
Loading
Personal Weather Stations






























Interactive Weather Map New forecast layout! Learn more

10-Day Weather Forecast

Advertisements
Track Severe Weather on mobile